Terminal Aerodrome Forecast
Issued by NWS

Home | Current Version | Previous Version | Text Only | Print | Product List | Glossary On
Versions: 1 2 3 4 5 6 7 8 9 10 11 12 13 14 15 16 17
000
FTUS44 KEWX 310600 AAA
TAFSSF
TAF AMD
KSSF 310641Z 3107/0106 15007KT P6SM BKN015
     FM311600 15007KT P6SM SCT035
     FM312000 14012KT P6SM SCT060
     FM010300 14005KT P6SM SKC=

USA.gov is the U.S. government's official web portal to all federal, state and local government web resources and services.